TMG6606 WICC-WILL
Flight info
| Callsign | TMG6606 |
|---|---|
| Flight time | 0h 44m |
| Altitude | 40000 |
| Route | BND PW HLM CKG W11 TKG |
| Aircraft | B738/M-SDFGHIRWY/EB2 |
Departure
| Time | 2026-04-17 07:15 |
|---|---|
| Airport | Husein Sastranegara International Airport (WICC) |
Arrival
| Time | 2026-04-17 07:59 |
|---|---|
| Airport | Radin Inten II International Airport (WILL) |
| Time | Latitude | Longitude | Altitude | Speed | Heading |
|---|---|---|---|---|---|
| 2026-04-17 06:56 | -6.90290 | 107.57918 | 2429 ft | 0 kts | 189° |
| 2026-04-17 07:07 | -6.90297 | 107.57917 | 2427 ft | 4 kts | 189° |
| 2026-04-17 07:07 | -6.90318 | 107.57901 | 2425 ft | 3 kts | 255° |
| 2026-04-17 07:07 | -6.90318 | 107.57878 | 2425 ft | 3 kts | 271° |
| 2026-04-17 07:07 | -6.90315 | 107.57850 | 2423 ft | 6 kts | 276° |
| 2026-04-17 07:08 | -6.90307 | 107.57787 | 2432 ft | 10 kts | 277° |
| 2026-04-17 07:08 | -6.90297 | 107.57721 | 2423 ft | 10 kts | 281° |
| 2026-04-17 07:08 | -6.90278 | 107.57668 | 2431 ft | 5 kts | 323° |
| 2026-04-17 07:08 | -6.90243 | 107.57670 | 2429 ft | 5 kts | 15° |
| 2026-04-17 07:09 | -6.90197 | 107.57684 | 2430 ft | 11 kts | 17° |
| 2026-04-17 07:09 | -6.90130 | 107.57701 | 2427 ft | 9 kts | 1° |
| 2026-04-17 07:09 | -6.90084 | 107.57665 | 2427 ft | 9 kts | 300° |
| 2026-04-17 07:09 | -6.90062 | 107.57608 | 2426 ft | 9 kts | 289° |
| 2026-04-17 07:10 | -6.90038 | 107.57540 | 2422 ft | 12 kts | 289° |
| 2026-04-17 07:10 | -6.90007 | 107.57447 | 2419 ft | 16 kts | 288° |
| 2026-04-17 07:10 | -6.89967 | 107.57330 | 2425 ft | 19 kts | 291° |
| 2026-04-17 07:10 | -6.89921 | 107.57197 | 2422 ft | 21 kts | 288° |
| 2026-04-17 07:11 | -6.89872 | 107.57049 | 2417 ft | 24 kts | 288° |
| 2026-04-17 07:11 | -6.89817 | 107.56893 | 2436 ft | 23 kts | 290° |
| 2026-04-17 07:11 | -6.89769 | 107.56759 | 2433 ft | 14 kts | 289° |
| 2026-04-17 07:11 | -6.89738 | 107.56694 | 2434 ft | 6 kts | 265° |
| 2026-04-17 07:12 | -6.89765 | 107.56691 | 2426 ft | 4 kts | 140° |
| 2026-04-17 07:12 | -6.89763 | 107.56715 | 2426 ft | 4 kts | 52° |
| 2026-04-17 07:12 | -6.89760 | 107.56736 | 2437 ft | 0 kts | 104° |
| 2026-04-17 07:12 | -6.89761 | 107.56738 | 2437 ft | 0 kts | 104° |
| 2026-04-17 07:14 | -6.89777 | 107.56791 | 2428 ft | 32 kts | 108° |
| 2026-04-17 07:14 | -6.89927 | 107.57227 | 2425 ft | 100 kts | 108° |
| 2026-04-17 07:14 | -6.90215 | 107.58079 | 2435 ft | 155 kts | 107° |
| 2026-04-17 07:14 | -6.90585 | 107.59232 | 2667 ft | 184 kts | 107° |
| 2026-04-17 07:15 | -6.91064 | 107.60446 | 3392 ft | 189 kts | 112° |
| 2026-04-17 07:15 | -6.91607 | 107.61628 | 4208 ft | 184 kts | 114° |
| 2026-04-17 07:15 | -6.92164 | 107.62757 | 4895 ft | 177 kts | 113° |
| 2026-04-17 07:15 | -6.92685 | 107.63906 | 5345 ft | 186 kts | 113° |
| 2026-04-17 07:16 | -6.93231 | 107.65130 | 5760 ft | 196 kts | 114° |
| 2026-04-17 07:16 | -6.93818 | 107.66396 | 6254 ft | 202 kts | 115° |
| 2026-04-17 07:16 | -6.94630 | 107.67565 | 6556 ft | 216 kts | 138° |
| 2026-04-17 07:16 | -6.96013 | 107.68286 | 6692 ft | 237 kts | 168° |
| 2026-04-17 07:17 | -6.97763 | 107.68200 | 6605 ft | 272 kts | 202° |
| 2026-04-17 07:17 | -6.99227 | 107.66969 | 7039 ft | 279 kts | 239° |
| 2026-04-17 07:17 | -6.99430 | 107.63212 | 8394 ft | 282 kts | 294° |
| 2026-04-17 07:18 | -6.98278 | 107.61616 | 8998 ft | 284 kts | 317° |
| 2026-04-17 07:18 | -6.96800 | 107.60359 | 9967 ft | 272 kts | 320° |
| 2026-04-17 07:18 | -6.95443 | 107.59054 | 10749 ft | 270 kts | 313° |
| 2026-04-17 07:18 | -6.94171 | 107.57626 | 11083 ft | 287 kts | 312° |
| 2026-04-17 07:19 | -6.92807 | 107.56109 | 11546 ft | 295 kts | 313° |
| 2026-04-17 07:19 | -6.91397 | 107.54590 | 12211 ft | 298 kts | 313° |
| 2026-04-17 07:19 | -6.89954 | 107.53066 | 12806 ft | 304 kts | 314° |
| 2026-04-17 07:19 | -6.88478 | 107.51524 | 13402 ft | 310 kts | 316° |
| 2026-04-17 07:20 | -6.86775 | 107.50143 | 13797 ft | 323 kts | 327° |
| 2026-04-17 07:20 | -6.84818 | 107.48900 | 13994 ft | 341 kts | 329° |
| 2026-04-17 07:20 | -6.82757 | 107.47660 | 14396 ft | 351 kts | 329° |
| 2026-04-17 07:20 | -6.80650 | 107.46376 | 14881 ft | 358 kts | 329° |
| 2026-04-17 07:21 | -6.78513 | 107.45040 | 15384 ft | 364 kts | 328° |
| 2026-04-17 07:21 | -6.76358 | 107.43669 | 15939 ft | 368 kts | 328° |
| 2026-04-17 07:21 | -6.74189 | 107.42283 | 16553 ft | 370 kts | 329° |
| 2026-04-17 07:21 | -6.71878 | 107.41237 | 17125 ft | 370 kts | 349° |
| 2026-04-17 07:22 | -6.69331 | 107.41117 | 17708 ft | 368 kts | 10° |
| 2026-04-17 07:22 | -6.66880 | 107.41834 | 18235 ft | 367 kts | 27° |
| 2026-04-17 07:22 | -6.64734 | 107.43211 | 18693 ft | 368 kts | 40° |
| 2026-04-17 07:22 | -6.62588 | 107.44648 | 19139 ft | 374 kts | 27° |
| 2026-04-17 07:23 | -6.60085 | 107.45417 | 19605 ft | 381 kts | 8° |
| 2026-04-17 07:23 | -6.57435 | 107.45215 | 20074 ft | 388 kts | 344° |
| 2026-04-17 07:23 | -6.55049 | 107.43934 | 20533 ft | 394 kts | 319° |
| 2026-04-17 07:23 | -6.53354 | 107.41779 | 20978 ft | 398 kts | 296° |
| 2026-04-17 07:24 | -6.52339 | 107.39179 | 21452 ft | 401 kts | 289° |
| 2026-04-17 07:24 | -6.51425 | 107.36517 | 21901 ft | 404 kts | 290° |
| 2026-04-17 07:24 | -6.50419 | 107.33860 | 22342 ft | 407 kts | 292° |
| 2026-04-17 07:24 | -6.49295 | 107.31243 | 22774 ft | 410 kts | 295° |
| 2026-04-17 07:25 | -6.48061 | 107.28634 | 23219 ft | 413 kts | 296° |
| 2026-04-17 07:25 | -6.46777 | 107.26074 | 23590 ft | 416 kts | 297° |
| 2026-04-17 07:25 | -6.45437 | 107.23484 | 23949 ft | 419 kts | 298° |
| 2026-04-17 07:25 | -6.44076 | 107.20890 | 24316 ft | 421 kts | 298° |
| 2026-04-17 07:26 | -6.42698 | 107.18273 | 24683 ft | 423 kts | 298° |
| 2026-04-17 07:26 | -6.41318 | 107.15651 | 25035 ft | 425 kts | 298° |
| 2026-04-17 07:26 | -6.39928 | 107.13005 | 25374 ft | 428 kts | 298° |
| 2026-04-17 07:26 | -6.38538 | 107.10354 | 25711 ft | 430 kts | 298° |
| 2026-04-17 07:27 | -6.37138 | 107.07682 | 26054 ft | 433 kts | 298° |
| 2026-04-17 07:27 | -6.35736 | 107.05004 | 26388 ft | 435 kts | 298° |
| 2026-04-17 07:27 | -6.34325 | 107.02309 | 26721 ft | 437 kts | 298° |
| 2026-04-17 07:27 | -6.32901 | 106.99591 | 27050 ft | 440 kts | 298° |
| 2026-04-17 07:28 | -6.31472 | 106.96862 | 27377 ft | 442 kts | 298° |
| 2026-04-17 07:28 | -6.30036 | 106.94121 | 27697 ft | 444 kts | 298° |
| 2026-04-17 07:28 | -6.28607 | 106.91395 | 28016 ft | 446 kts | 298° |
| 2026-04-17 07:28 | -6.27258 | 106.88577 | 28325 ft | 449 kts | 292° |
| 2026-04-17 07:29 | -6.26319 | 106.85542 | 28614 ft | 452 kts | 284° |
| 2026-04-17 07:29 | -6.25603 | 106.82459 | 28874 ft | 455 kts | 283° |
| 2026-04-17 07:29 | -6.24211 | 106.76165 | 29205 ft | 464 kts | 283° |
| 2026-04-17 07:30 | -6.23490 | 106.72985 | 29447 ft | 467 kts | 283° |
| 2026-04-17 07:30 | -6.22751 | 106.69799 | 29695 ft | 469 kts | 283° |
| 2026-04-17 07:30 | -6.22008 | 106.66640 | 29839 ft | 472 kts | 283° |
| 2026-04-17 07:30 | -6.21244 | 106.63407 | 29827 ft | 477 kts | 283° |
| 2026-04-17 07:31 | -6.19715 | 106.56928 | 29542 ft | 478 kts | 283° |
| 2026-04-17 07:31 | -6.18839 | 106.53794 | 29061 ft | 472 kts | 293° |
| 2026-04-17 07:31 | -6.17244 | 106.50964 | 28665 ft | 463 kts | 309° |
| 2026-04-17 07:32 | -6.15199 | 106.48500 | 28266 ft | 455 kts | 311° |
| 2026-04-17 07:32 | -6.13132 | 106.46115 | 27820 ft | 451 kts | 312° |
| 2026-04-17 07:32 | -6.11075 | 106.43763 | 27393 ft | 446 kts | 312° |
| 2026-04-17 07:32 | -6.09043 | 106.41428 | 26975 ft | 441 kts | 312° |
| 2026-04-17 07:33 | -6.07044 | 106.39111 | 26559 ft | 437 kts | 311° |
| 2026-04-17 07:33 | -6.05070 | 106.36806 | 26153 ft | 433 kts | 311° |
| 2026-04-17 07:33 | -6.03121 | 106.34516 | 25746 ft | 429 kts | 311° |
| 2026-04-17 07:33 | -6.01198 | 106.32251 | 25334 ft | 426 kts | 311° |
| 2026-04-17 07:34 | -5.99305 | 106.30018 | 24939 ft | 422 kts | 311° |
| 2026-04-17 07:34 | -5.97400 | 106.27770 | 24515 ft | 420 kts | 311° |
| 2026-04-17 07:34 | -5.95516 | 106.25547 | 24113 ft | 417 kts | 311° |
| 2026-04-17 07:34 | -5.93640 | 106.23336 | 23709 ft | 415 kts | 311° |
| 2026-04-17 07:35 | -5.91778 | 106.21140 | 23281 ft | 412 kts | 311° |
| 2026-04-17 07:35 | -5.89922 | 106.18953 | 22836 ft | 409 kts | 311° |
| 2026-04-17 07:35 | -5.88081 | 106.16783 | 22424 ft | 405 kts | 311° |
| 2026-04-17 07:35 | -5.86263 | 106.14640 | 22026 ft | 401 kts | 311° |
| 2026-04-17 07:36 | -5.84462 | 106.12518 | 21637 ft | 398 kts | 311° |
| 2026-04-17 07:36 | -5.82675 | 106.10413 | 21255 ft | 394 kts | 311° |
| 2026-04-17 07:36 | -5.80901 | 106.08324 | 20865 ft | 391 kts | 311° |
| 2026-04-17 07:36 | -5.79144 | 106.06254 | 20487 ft | 388 kts | 311° |
| 2026-04-17 07:37 | -5.77396 | 106.04196 | 20113 ft | 385 kts | 311° |
| 2026-04-17 07:37 | -5.75667 | 106.02160 | 19741 ft | 382 kts | 311° |
| 2026-04-17 07:37 | -5.73944 | 106.00131 | 19364 ft | 380 kts | 311° |
| 2026-04-17 07:37 | -5.72258 | 105.98146 | 18994 ft | 378 kts | 311° |
| 2026-04-17 07:38 | -5.70555 | 105.96141 | 18610 ft | 376 kts | 310° |
| 2026-04-17 07:38 | -5.68862 | 105.94149 | 18238 ft | 374 kts | 310° |
| 2026-04-17 07:38 | -5.67170 | 105.92157 | 17830 ft | 373 kts | 310° |
| 2026-04-17 07:38 | -5.65498 | 105.90188 | 17443 ft | 370 kts | 310° |
| 2026-04-17 07:39 | -5.63831 | 105.88227 | 17066 ft | 367 kts | 311° |
| 2026-04-17 07:39 | -5.62177 | 105.86281 | 16697 ft | 364 kts | 311° |
| 2026-04-17 07:39 | -5.60542 | 105.84356 | 16336 ft | 361 kts | 311° |
| 2026-04-17 07:39 | -5.58916 | 105.82444 | 15975 ft | 359 kts | 311° |
| 2026-04-17 07:40 | -5.57843 | 105.81181 | 15749 ft | 357 kts | 311° |
| 2026-04-17 07:40 | -5.56237 | 105.79291 | 15399 ft | 355 kts | 311° |
| 2026-04-17 07:40 | -5.54632 | 105.77404 | 15041 ft | 354 kts | 311° |
| 2026-04-17 07:40 | -5.52522 | 105.74922 | 14560 ft | 352 kts | 311° |
| 2026-04-17 07:41 | -5.51468 | 105.73682 | 14319 ft | 351 kts | 311° |
| 2026-04-17 07:41 | -5.49882 | 105.71817 | 13959 ft | 350 kts | 311° |
| 2026-04-17 07:41 | -5.48305 | 105.69962 | 13594 ft | 349 kts | 311° |
| 2026-04-17 07:41 | -5.46732 | 105.68113 | 13217 ft | 347 kts | 311° |
| 2026-04-17 07:42 | -5.45170 | 105.66276 | 12867 ft | 344 kts | 311° |
| 2026-04-17 07:42 | -5.43614 | 105.64449 | 12502 ft | 343 kts | 311° |
| 2026-04-17 07:42 | -5.42186 | 105.62561 | 12232 ft | 338 kts | 298° |
| 2026-04-17 07:42 | -5.41277 | 105.60420 | 12013 ft | 332 kts | 290° |
| 2026-04-17 07:43 | -5.40490 | 105.58248 | 11678 ft | 330 kts | 290° |
| 2026-04-17 07:43 | -5.39718 | 105.56089 | 11355 ft | 328 kts | 290° |
| 2026-04-17 07:43 | -5.38942 | 105.53940 | 11123 ft | 323 kts | 290° |
| 2026-04-17 07:43 | -5.38213 | 105.51843 | 11045 ft | 314 kts | 287° |
| 2026-04-17 07:44 | -5.37542 | 105.49791 | 10941 ft | 305 kts | 291° |
| 2026-04-17 07:44 | -5.36781 | 105.47827 | 10729 ft | 301 kts | 292° |
| 2026-04-17 07:44 | -5.36029 | 105.45902 | 10558 ft | 297 kts | 287° |
| 2026-04-17 07:44 | -5.35888 | 105.43869 | 10239 ft | 295 kts | 256° |
| 2026-04-17 07:45 | -5.36730 | 105.42016 | 9980 ft | 292 kts | 237° |
| 2026-04-17 07:45 | -5.37819 | 105.40297 | 9666 ft | 292 kts | 237° |
| 2026-04-17 07:45 | -5.38903 | 105.38583 | 9397 ft | 290 kts | 237° |
| 2026-04-17 07:45 | -5.39963 | 105.36879 | 9246 ft | 283 kts | 237° |
| 2026-04-17 07:46 | -5.40900 | 105.35157 | 9112 ft | 277 kts | 242° |
| 2026-04-17 07:46 | -5.41865 | 105.33504 | 8941 ft | 272 kts | 237° |
| 2026-04-17 07:46 | -5.42553 | 105.31766 | 8739 ft | 270 kts | 264° |
| 2026-04-17 07:46 | -5.42605 | 105.29900 | 8549 ft | 266 kts | 269° |
| 2026-04-17 07:47 | -5.42594 | 105.28055 | 8316 ft | 263 kts | 280° |
| 2026-04-17 07:47 | -5.41813 | 105.26431 | 7957 ft | 262 kts | 318° |
| 2026-04-17 07:47 | -5.40258 | 105.25604 | 7701 ft | 253 kts | 354° |
| 2026-04-17 07:47 | -5.38567 | 105.25862 | 7409 ft | 247 kts | 31° |
| 2026-04-17 07:48 | -5.37399 | 105.27067 | 7138 ft | 242 kts | 61° |
| 2026-04-17 07:48 | -5.36464 | 105.28466 | 6902 ft | 242 kts | 55° |
| 2026-04-17 07:48 | -5.35695 | 105.29926 | 6629 ft | 241 kts | 74° |
| 2026-04-17 07:48 | -5.35470 | 105.31575 | 6424 ft | 238 kts | 94° |
| 2026-04-17 07:49 | -5.35817 | 105.33198 | 6194 ft | 238 kts | 107° |
| 2026-04-17 07:49 | -5.36367 | 105.34764 | 5942 ft | 238 kts | 109° |
| 2026-04-17 07:49 | -5.36933 | 105.36317 | 5733 ft | 236 kts | 109° |
| 2026-04-17 07:49 | -5.37493 | 105.37873 | 5448 ft | 237 kts | 108° |
| 2026-04-17 07:50 | -5.38208 | 105.39350 | 5242 ft | 237 kts | 126° |
| 2026-04-17 07:50 | -5.39366 | 105.40544 | 5002 ft | 238 kts | 137° |
| 2026-04-17 07:50 | -5.40626 | 105.41613 | 4769 ft | 237 kts | 139° |
| 2026-04-17 07:50 | -5.41890 | 105.42677 | 4550 ft | 237 kts | 138° |
| 2026-04-17 07:51 | -5.43155 | 105.43731 | 4337 ft | 237 kts | 143° |
| 2026-04-17 07:51 | -5.44671 | 105.44326 | 4202 ft | 238 kts | 171° |
| 2026-04-17 07:51 | -5.46284 | 105.44215 | 4116 ft | 231 kts | 195° |
| 2026-04-17 07:51 | -5.47657 | 105.43460 | 4023 ft | 222 kts | 221° |
| 2026-04-17 07:52 | -5.48568 | 105.42239 | 3791 ft | 220 kts | 246° |
| 2026-04-17 07:52 | -5.48875 | 105.40764 | 3546 ft | 215 kts | 273° |
| 2026-04-17 07:52 | -5.48430 | 105.39381 | 3317 ft | 207 kts | 311° |
| 2026-04-17 07:52 | -5.47464 | 105.38368 | 3239 ft | 196 kts | 318° |
| 2026-04-17 07:53 | -5.46509 | 105.37424 | 3127 ft | 191 kts | 318° |
| 2026-04-17 07:53 | -5.45572 | 105.36498 | 3053 ft | 188 kts | 317° |
| 2026-04-17 07:53 | -5.44642 | 105.35580 | 3042 ft | 187 kts | 317° |
| 2026-04-17 07:53 | -5.43706 | 105.34650 | 3007 ft | 189 kts | 317° |
| 2026-04-17 07:54 | -5.42770 | 105.33718 | 3003 ft | 190 kts | 317° |
| 2026-04-17 07:54 | -5.41812 | 105.32797 | 3020 ft | 192 kts | 321° |
| 2026-04-17 07:54 | -5.40784 | 105.31920 | 3037 ft | 194 kts | 322° |
| 2026-04-17 07:54 | -5.39747 | 105.31049 | 3026 ft | 193 kts | 322° |
| 2026-04-17 07:55 | -5.38726 | 105.30191 | 3013 ft | 190 kts | 322° |
| 2026-04-17 07:55 | -5.37731 | 105.29350 | 2995 ft | 186 kts | 322° |
| 2026-04-17 07:55 | -5.36736 | 105.28508 | 2892 ft | 188 kts | 322° |
| 2026-04-17 07:55 | -5.35737 | 105.27662 | 2726 ft | 193 kts | 322° |
| 2026-04-17 07:56 | -5.34719 | 105.26798 | 2530 ft | 188 kts | 322° |
| 2026-04-17 07:56 | -5.33742 | 105.25966 | 2269 ft | 181 kts | 322° |
| 2026-04-17 07:56 | -5.32791 | 105.25158 | 2056 ft | 178 kts | 323° |
| 2026-04-17 07:56 | -5.31851 | 105.24362 | 1824 ft | 174 kts | 323° |
| 2026-04-17 07:57 | -5.30944 | 105.23596 | 1642 ft | 170 kts | 322° |
| 2026-04-17 07:57 | -5.30057 | 105.22841 | 1419 ft | 165 kts | 322° |
| 2026-04-17 07:57 | -5.29189 | 105.22104 | 1142 ft | 162 kts | 320° |
| 2026-04-17 07:57 | -5.28345 | 105.21373 | 952 ft | 157 kts | 322° |
| 2026-04-17 07:58 | -5.27511 | 105.20669 | 675 ft | 156 kts | 321° |
| 2026-04-17 07:58 | -5.26696 | 105.19971 | 489 ft | 152 kts | 320° |
| 2026-04-17 07:58 | -5.25893 | 105.19290 | 328 ft | 150 kts | 321° |
| 2026-04-17 07:58 | -5.25126 | 105.18651 | 261 ft | 123 kts | 321° |
| 2026-04-17 07:59 | -5.24634 | 105.18234 | 259 ft | 61 kts | 321° |
| 2026-04-17 07:59 | -5.24498 | 105.18116 | 258 ft | 10 kts | 319° |
| 2026-04-17 07:59 | -5.24474 | 105.18087 | 258 ft | 2 kts | 268° |
| 2026-04-17 07:59 | -5.24475 | 105.18075 | 258 ft | 2 kts | 265° |
| 2026-04-17 08:00 | -5.24476 | 105.18064 | 258 ft | 2 kts | 265° |
| 2026-04-17 08:00 | -5.24477 | 105.18053 | 259 ft | 2 kts | 265° |
| 2026-04-17 08:00 | -5.24478 | 105.18041 | 259 ft | 3 kts | 265° |
| 2026-04-17 08:00 | -5.24481 | 105.18003 | 259 ft | 9 kts | 265° |
| 2026-04-17 08:01 | -5.24479 | 105.17940 | 259 ft | 7 kts | 298° |
| 2026-04-17 08:01 | -5.24440 | 105.17914 | 260 ft | 7 kts | 328° |
| 2026-04-17 08:01 | -5.24403 | 105.17884 | 258 ft | 7 kts | 319° |
| 2026-04-17 08:01 | -5.24368 | 105.17855 | 258 ft | 7 kts | 320° |
| 2026-04-17 08:02 | -5.24333 | 105.17825 | 258 ft | 6 kts | 320° |
| 2026-04-17 08:02 | -5.24301 | 105.17798 | 258 ft | 5 kts | 318° |
| 2026-04-17 08:02 | -5.24300 | 105.17770 | 258 ft | 4 kts | 233° |
| 2026-04-17 08:02 | -5.24317 | 105.17750 | 260 ft | 2 kts | 230° |
| 2026-04-17 08:03 | -5.24325 | 105.17740 | 260 ft | 2 kts | 231° |
| 2026-04-17 08:03 | -5.24331 | 105.17734 | 260 ft | 0 kts | 230° |